Terminal Aerodrome Forecast
Issued by NWS Shreveport, LA

Home | Current Version | Previous Version | Text Only | Print | Product List | Glossary On
Versions: 1 2 3 4 5 6 7 8 9 10 11 12 13 14 15 16 17 18
000
FTUS44 KSHV 301141
TAFSHV
TAF
KSHV 301141Z 3012/0112 23006KT P6SM SCT012 SCT050 BKN150
      TEMPO 3013/3016 BKN012
     FM301600 25011KT P6SM SCT025 SCT050 BKN150
     FM301800 24010KT P6SM VCTS BKN045CB
     FM302200 24008KT P6SM SCT050 SCT120 BKN250
     FM010100 21006KT P6SM FEW050 SCT150 BKN250
     FM010600 21005KT P6SM BKN250=

USA.gov is the U.S. government's official web portal to all federal, state and local government web resources and services.